KIAG/IAG METAR and TAF weather

Enter ICAO airport designator
Station Type Date Time Source
KIAG METAR 2019/08/22 03:53 UTC NOAA

KIAG 220353Z AUTO 22007KT 8SM SCT090 23/22 A2984 RMK AO2 SLP100 T02280217


Station Type Date Time Source
KIAG Decoded METAR 2019/08/22 03:53 UTC NOAA

Station name not available
Aug 21, 2019 - 11:53 PM EDT / 2019.08.22 0353 UTC
Wind: from the SW (220 degrees) at 8 MPH (7 KT):0
Visibility: 8 mile(s):0
Sky conditions: partly cloudy
Temperature: 73.0 F (22.8 C)
Dew Point: 71.1 F (21.7 C)
Relative Humidity: 93%
Pressure (altimeter): 29.84 in. Hg (1010 hPa)
ob: KIAG 220353Z AUTO 22007KT 8SM SCT090 23/22 A2984 RMK AO2 SLP100 T02280217
cycle: 4

Station Type Date Time Source
KIAG TAF 2019/08/22 03:58 UTC NOAA

TAF
AMD KIAG 220255Z 2203/2224 23009KT P6SM SCT120
FM220700 31006KT P6SM BKN040
FM221000 30006KT P6SM BKN090
FM222000 29010KT P6SM SCT120

Example: see airport list